createdAt,value
2017-06-25T00:00:02.580Z,1011.25
2017-06-25T00:05:02.732Z,1011.26
2017-06-25T00:10:03.261Z,1011.16
2017-06-25T00:15:02.737Z,1011.17
2017-06-25T00:20:03.157Z,1011.13
2017-06-25T00:25:03.463Z,1011.07
2017-06-25T00:30:02.797Z,1010.95
2017-06-25T00:35:03.252Z,1011.01
2017-06-25T00:40:02.696Z,1010.98
2017-06-25T00:45:03.037Z,1010.91
2017-06-25T00:50:02.529Z,1011.04
2017-06-25T00:55:02.938Z,1010.95
2017-06-25T01:00:03.353Z,1010.9
2017-06-25T01:05:02.686Z,1010.76
2017-06-25T01:10:03.206Z,1010.85
2017-06-25T01:15:02.520Z,1010.79
2017-06-25T01:20:02.942Z,1010.78
2017-06-25T01:25:03.246Z,1010.79
2017-06-25T01:30:02.583Z,1010.65
2017-06-25T01:35:03.036Z,1010.67
2017-06-25T01:40:03.446Z,1010.6
2017-06-25T01:45:02.785Z,1010.52
2017-06-25T01:50:03.241Z,1010.61
2017-06-25T01:55:02.608Z,1010.5
2017-06-25T02:00:03.060Z,1010.45
2017-06-25T02:05:02.687Z,1010.34
2017-06-25T02:10:03.076Z,1010.37
2017-06-25T02:15:03.484Z,1010.23
2017-06-25T02:20:02.776Z,1010.26
2017-06-25T02:25:03.247Z,1010.27
2017-06-25T02:30:02.570Z,1010.21
2017-06-25T02:35:02.904Z,1010.2
2017-06-25T02:40:03.255Z,1010.21
2017-06-25T02:45:02.733Z,1010.2
2017-06-25T02:50:03.067Z,1010.11
2017-06-25T02:55:03.397Z,1010.14
2017-06-25T03:00:02.789Z,1010.14
2017-06-25T03:05:03.092Z,1010.16
2017-06-25T03:10:02.602Z,1010.09
2017-06-25T03:15:03.159Z,1010.15
2017-06-25T03:20:02.644Z,1010.16
2017-06-25T03:25:03.195Z,1010.19
2017-06-25T03:30:03.535Z,1010.01
2017-06-25T03:35:03.031Z,1010.04
2017-06-25T03:40:02.491Z,1009.95
2017-06-25T03:45:02.866Z,1009.97
2017-06-25T03:50:03.192Z,1010.04
2017-06-25T03:55:02.672Z,1010.06
2017-06-25T04:00:03.051Z,1009.93
2017-06-25T04:05:03.484Z,1010.01
2017-06-25T04:10:03.010Z,1009.92
2017-06-25T04:15:03.644Z,1009.9
2017-06-25T04:20:02.988Z,1009.79
2017-06-25T04:25:03.475Z,1009.86
2017-06-25T04:30:03.788Z,1009.78
2017-06-25T04:35:03.045Z,1009.87
2017-06-25T04:40:02.547Z,1009.8
2017-06-25T04:45:02.907Z,1009.73
2017-06-25T04:50:02.961Z,1009.81
2017-06-25T04:55:03.346Z,1009.63
2017-06-25T05:00:02.789Z,1009.72
2017-06-25T05:05:03.098Z,1009.66
2017-06-25T05:10:03.489Z,1009.67
2017-06-25T05:15:02.814Z,1009.63
2017-06-25T05:20:03.285Z,1009.67
2017-06-25T05:25:02.737Z,1009.63
2017-06-25T05:30:03.116Z,1009.63
2017-06-25T05:35:03.474Z,1009.71
2017-06-25T05:40:02.889Z,1009.74
2017-06-25T05:45:03.225Z,1009.74
2017-06-25T05:50:03.498Z,1009.78
2017-06-25T05:55:02.962Z,1009.84
2017-06-25T06:00:03.247Z,1009.73
2017-06-25T06:05:03.521Z,1009.75
2017-06-25T06:10:02.977Z,1009.82
2017-06-25T06:15:03.256Z,1009.87
2017-06-25T06:20:02.691Z,1009.85
2017-06-25T06:25:02.982Z,1009.86
2017-06-25T06:30:03.238Z,1009.77
2017-06-25T06:35:02.530Z,1009.88
2017-06-25T06:40:02.827Z,1009.91
2017-06-25T06:45:03.096Z,1009.87
2017-06-25T06:50:03.410Z,1009.86
2017-06-25T06:55:02.778Z,1009.82
2017-06-25T07:00:03.167Z,1009.82
2017-06-25T07:05:02.595Z,1009.82
2017-06-25T07:10:03.072Z,1009.8
2017-06-25T07:15:02.523Z,1009.74
2017-06-25T07:20:02.925Z,1009.69
2017-06-25T07:25:03.362Z,1009.78
2017-06-25T07:30:03.319Z,1009.75
2017-06-25T07:35:02.862Z,1009.76
2017-06-25T07:40:03.327Z,1009.74
2017-06-25T07:45:02.673Z,1009.81
2017-06-25T07:50:03.432Z,1010.05
2017-06-25T07:55:03.476Z,1009.9
2017-06-25T08:00:02.805Z,1009.98
2017-06-25T08:05:03.377Z,1010.08
2017-06-25T08:10:02.931Z,1010.02
2017-06-25T08:15:03.254Z,1010.09
2017-06-25T08:20:02.624Z,1010.05
2017-06-25T08:25:03.423Z,1010.16
2017-06-25T08:30:03.103Z,1010.01
2017-06-25T08:35:02.559Z,1010.2
2017-06-25T08:40:03.291Z,1010.3
2017-06-25T08:45:02.799Z,1010.21
2017-06-25T08:50:03.402Z,1010.22
2017-06-25T08:55:02.777Z,1010.45
2017-06-25T09:00:03.039Z,1010.62
2017-06-25T09:05:03.584Z,1010.67
2017-06-25T09:10:03.288Z,1010.75
2017-06-25T09:15:02.585Z,1010.75
2017-06-25T09:20:03.049Z,1010.69
2017-06-25T09:25:03.506Z,1010.81
2017-06-25T09:30:03.236Z,1010.79
2017-06-25T09:35:02.536Z,1010.83
2017-06-25T09:40:03.128Z,1010.92
2017-06-25T09:45:02.653Z,1010.98
2017-06-25T09:50:03.136Z,1011.01
2017-06-25T09:55:03.481Z,1011.03
2017-06-25T10:00:03.252Z,1011
2017-06-25T10:05:02.570Z,1011.06
2017-06-25T10:10:03.118Z,1010.98
2017-06-25T10:15:02.952Z,1011.07
2017-06-25T10:20:03.327Z,1011.05
2017-06-25T10:25:03.028Z,1011.15
2017-06-25T10:30:03.337Z,1011.13
2017-06-25T10:35:03.232Z,1011.13
2017-06-25T10:40:03.367Z,1011.12
2017-06-25T10:45:02.918Z,1011.18
2017-06-25T10:50:02.939Z,1011.19
2017-06-25T10:55:03.081Z,1011.25
2017-06-25T11:00:02.660Z,1011.26
2017-06-25T11:05:02.859Z,1011.3
2017-06-25T11:10:03.236Z,1011.2
2017-06-25T11:15:02.679Z,1011.17
2017-06-25T11:20:02.710Z,1011.26
2017-06-25T11:25:03.129Z,1011.6
2017-06-25T11:30:02.666Z,1011.58
2017-06-25T11:35:03.062Z,1011.4
2017-06-25T11:40:03.007Z,1011.47
2017-06-25T11:45:02.992Z,1011.58
2017-06-25T11:50:02.763Z,1011.57
2017-06-25T11:55:02.665Z,1011.65
2017-06-25T12:00:03.451Z,1011.68
2017-06-25T12:05:02.983Z,1011.66
2017-06-25T12:10:02.564Z,1011.65
2017-06-25T12:15:03.354Z,1011.71
2017-06-25T12:20:03.117Z,1011.85
2017-06-25T12:25:03.440Z,1011.93
2017-06-25T12:30:02.839Z,1011.91
2017-06-25T12:35:03.122Z,1011.92
2017-06-25T12:40:02.672Z,1011.97
2017-06-25T12:45:02.999Z,1012.02
2017-06-25T12:50:02.853Z,1011.98
2017-06-25T12:55:02.986Z,1012
2017-06-25T13:00:02.985Z,1011.91
2017-06-25T13:05:02.655Z,1011.92
2017-06-25T13:10:02.627Z,1011.95
2017-06-25T13:15:03.167Z,1011.97
2017-06-25T13:20:03.105Z,1011.97
2017-06-25T13:25:03.064Z,1011.94
2017-06-25T13:30:03.084Z,1011.96
2017-06-25T13:35:03.051Z,1011.91
2017-06-25T13:40:02.665Z,1011.96
2017-06-25T13:45:02.643Z,1011.93
2017-06-25T13:50:02.560Z,1011.9
2017-06-25T13:55:02.917Z,1011.94
2017-06-25T14:00:03.227Z,1011.92
2017-06-25T14:05:03.067Z,1012.04
2017-06-25T14:10:03.240Z,1011.98
2017-06-25T14:15:03.071Z,1011.92
2017-06-25T14:20:03.352Z,1011.95
2017-06-25T14:25:02.624Z,1011.93
2017-06-25T14:30:02.828Z,1011.95
2017-06-25T14:35:02.890Z,1011.85
2017-06-25T14:40:03.242Z,1011.88
2017-06-25T14:45:02.954Z,1011.69
2017-06-25T14:50:03.035Z,1011.82
2017-06-25T14:55:03.226Z,1011.81
2017-06-25T15:00:03.477Z,1011.78
2017-06-25T15:05:03.312Z,1011.79
2017-06-25T15:10:02.774Z,1011.78
2017-06-25T15:15:02.839Z,1011.81
2017-06-25T15:20:02.795Z,1011.76
2017-06-25T15:25:02.672Z,1011.86
2017-06-25T15:30:03.078Z,1011.77
2017-06-25T15:35:03.387Z,1011.83
2017-06-25T15:40:03.308Z,1011.88
2017-06-25T15:45:03.478Z,1011.77
2017-06-25T15:50:02.798Z,1011.81
2017-06-25T15:55:02.956Z,1011.76
2017-06-25T16:00:03.174Z,1011.72
2017-06-25T16:05:02.775Z,1011.66
2017-06-25T16:10:03.471Z,1011.68
2017-06-25T16:15:02.667Z,1011.68
2017-06-25T16:20:02.863Z,1011.75
2017-06-25T16:25:03.165Z,1011.72
2017-06-25T16:30:02.524Z,1011.57
2017-06-25T16:35:02.956Z,1011.57
2017-06-25T16:40:03.114Z,1011.52
2017-06-25T16:45:03.117Z,1011.55
2017-06-25T16:50:03.558Z,1011.55
2017-06-25T16:55:03.289Z,1011.51
2017-06-25T17:00:02.603Z,1011.57
2017-06-25T17:05:02.822Z,1011.53
2017-06-25T17:10:02.935Z,1011.45
2017-06-25T17:15:02.907Z,1011.52
2017-06-25T17:20:03.186Z,1011.48
2017-06-25T17:25:02.618Z,1011.56
2017-06-25T17:30:02.530Z,1011.44
2017-06-25T17:35:02.527Z,1011.47
2017-06-25T17:40:02.759Z,1011.49
2017-06-25T17:45:02.816Z,1011.48
2017-06-25T17:50:03.206Z,1011.44
2017-06-25T17:55:03.439Z,1011.37
2017-06-25T18:00:02.948Z,1011.31
2017-06-25T18:05:02.770Z,1011.29
2017-06-25T18:10:02.920Z,1011.27
2017-06-25T18:15:03.278Z,1011.25
2017-06-25T18:20:03.046Z,1011.21
2017-06-25T18:25:02.836Z,1011.2
2017-06-25T18:30:02.708Z,1011.16
2017-06-25T18:35:03.312Z,1011.2
2017-06-25T18:40:02.855Z,1011.19
2017-06-25T18:45:02.564Z,1011.15
2017-06-25T18:50:02.953Z,1011.1
2017-06-25T18:55:02.555Z,1011.21
2017-06-25T19:00:02.592Z,1011.22
2017-06-25T19:05:02.763Z,1011.21
2017-06-25T19:10:03.468Z,1011.28
2017-06-25T19:15:03.471Z,1011.2
2017-06-25T19:20:02.611Z,1011.24
2017-06-25T19:25:02.854Z,1011.21
2017-06-25T19:30:03.505Z,1011.14
2017-06-25T19:35:03.007Z,1011.13
2017-06-25T19:40:02.577Z,1011.17
2017-06-25T19:45:02.555Z,1011.16
2017-06-25T19:50:02.965Z,1011.18
2017-06-25T19:55:03.459Z,1011.16
2017-06-25T20:00:03.347Z,1011.17
2017-06-25T20:05:03.447Z,1011.18
2017-06-25T20:10:02.757Z,1011.24
2017-06-25T20:15:02.613Z,1011.22
2017-06-25T20:20:02.787Z,1011.18
2017-06-25T20:25:03.249Z,1011.15
2017-06-25T20:30:03.286Z,1011.19
2017-06-25T20:35:03.436Z,1011.3
2017-06-25T20:40:03.582Z,1011.33
2017-06-25T20:45:02.791Z,1011.32
2017-06-25T20:50:03.058Z,1011.25
2017-06-25T20:55:02.727Z,1011.23
2017-06-25T21:00:03.568Z,1011.15
2017-06-25T21:05:02.957Z,1011.19
2017-06-25T21:10:02.899Z,1011.2
2017-06-25T21:15:02.806Z,1011.11
2017-06-25T21:20:02.780Z,1011.05
2017-06-25T21:25:03.291Z,1010.95
2017-06-25T21:30:02.682Z,1010.88
2017-06-25T21:35:03.023Z,1010.91
2017-06-25T21:40:03.403Z,1010.99
2017-06-25T21:45:02.772Z,1010.91
2017-06-25T21:50:03.180Z,1010.97
2017-06-25T21:55:02.654Z,1011
2017-06-25T22:00:02.953Z,1010.94
2017-06-25T22:05:03.236Z,1011
2017-06-25T22:10:02.580Z,1011.06
2017-06-25T22:15:02.993Z,1011.01
2017-06-25T22:20:03.439Z,1010.93
2017-06-25T22:25:02.724Z,1011.01
2017-06-25T22:30:03.183Z,1010.96
2017-06-25T22:35:02.595Z,1010.84
2017-06-25T22:40:02.904Z,1010.86
2017-06-25T22:45:03.391Z,1010.83
2017-06-25T22:50:02.807Z,1010.71
2017-06-25T22:55:03.101Z,1010.66
2017-06-25T23:00:02.700Z,1010.65
2017-06-25T23:05:03.342Z,1010.55
2017-06-25T23:10:02.835Z,1010.61
2017-06-25T23:15:03.209Z,1010.61
2017-06-25T23:20:02.665Z,1010.64
2017-06-25T23:25:02.981Z,1010.7
2017-06-25T23:30:03.384Z,1010.63
2017-06-25T23:35:02.845Z,1010.7
2017-06-25T23:40:03.338Z,1010.8
2017-06-25T23:45:02.570Z,1010.84
2017-06-25T23:50:02.902Z,1010.86
2017-06-25T23:55:03.215Z,1010.82
